Time;durP1;ratioP1;P1;durP2;ratioP2;P2;SDS_P1;SDS_P2;PMS_P1;PMS_P2;Temp;Humidity;BMP_temperature;BMP_pressure;BME280_temperature;BME280_humidity;BME280_pressure;Samples;Min_cycle;Max_cycle;Signal;HPM_P1;HPM_P2
2023/07/19 00:01:38;;;;;;;;;;;;;;;16.55;46.12;100615.13;4998638;28;1179;-59
2023/07/19 00:04:04;;;;;;;;;;;;;;;16.58;46.29;100622.78;4998291;28;1140;-58
2023/07/19 00:06:29;;;;;;;;;;;;;;;16.59;46.31;100624.44;4998569;28;1906;-58
2023/07/19 00:08:55;;;;;;;;;;;;;;;16.66;45.94;100626.06;4997820;28;1133;-58
2023/07/19 00:11:21;;;;;;;;;;;;;;;16.64;46.18;100617.31;4998303;28;1156;-59
2023/07/19 00:13:47;;;;;;;;;;;;;;;16.64;46.05;100628.28;4997861;28;1088;-58
2023/07/19 00:16:12;;;;;;;;;;;;;;;16.55;46.32;100622.50;4998127;28;1084;-58
2023/07/19 00:18:38;;;;;;;;;;;;;;;16.64;46.07;100620.84;4998345;28;1139;-58
2023/07/19 00:21:04;;;;;;;;;;;;;;;16.50;46.42;100617.06;4997737;28;855;-57
2023/07/19 00:23:29;;;;;;;;;;;;;;;16.57;46.37;100612.91;4997408;28;1882;-58
2023/07/19 00:25:55;;;;;;;;;;;;;;;16.58;46.07;100598.09;4997688;28;1963;-58
2023/07/19 00:28:20;;;;;;;;;;;;;;;16.67;46.16;100601.06;4997564;28;1104;-58
2023/07/19 00:30:46;;;;;;;;;;;;;;;16.56;46.07;100615.94;4997877;28;938;-58
2023/07/19 00:33:11;;;;;;;;;;;;;;;16.59;46.04;100593.41;4997526;28;981;-58
2023/07/19 00:35:43;;;;;;;;;;;;;;;16.67;45.95;100597.53;4997475;28;1114;-58
2023/07/19 00:38:09;;;;;;;;;;;;;;;16.58;45.91;100586.28;4996441;28;1514;-58
2023/07/19 00:40:34;;;;;;;;;;;;;;;16.61;45.93;100580.25;4997763;28;1092;-58
2023/07/19 00:43:00;;;;;;;;;;;;;;;16.62;46.33;100568.16;4997544;28;1108;-58
2023/07/19 00:45:26;;;;;;;;;;;;;;;16.59;46.32;100564.06;4996966;28;1965;-58
2023/07/19 00:47:52;;;;;;;;;;;;;;;16.52;45.96;100559.94;4997487;28;1303;-58
2023/07/19 00:50:19;;;;;;;;;;;;;;;16.53;46.00;100578.06;4980312;28;1380;-59
2023/07/19 00:52:48;;;;;;;;;;;;;;;16.50;46.30;100559.41;4997588;28;1147;-59
2023/07/19 00:55:13;;;;;;;;;;;;;;;16.53;46.12;100561.59;4996294;28;2611;-59
2023/07/19 00:57:39;;;;;;;;;;;;;;;16.56;45.74;100555.53;4997554;28;1037;-59
2023/07/19 01:00:05;;;;;;;;;;;;;;;16.57;45.92;100571.72;4997281;28;1102;-59
2023/07/19 01:02:31;;;;;;;;;;;;;;;16.57;45.78;100552.50;4997234;28;1108;-58
2023/07/19 01:04:58;;;;;;;;;;;;;;;16.54;45.80;100557.75;4997065;28;1965;-59
2023/07/19 01:07:24;;;;;;;;;;;;;;;16.47;45.93;100557.22;4997034;28;993;-59
2023/07/19 01:09:50;;;;;;;;;;;;;;;16.50;45.64;100546.50;4995251;28;2195;-59
2023/07/19 01:12:15;;;;;;;;;;;;;;;16.52;45.77;100548.97;4996685;28;1099;-59
2023/07/19 01:14:41;;;;;;;;;;;;;;;16.57;45.43;100546.22;4997344;28;1102;-59
2023/07/19 01:17:06;;;;;;;;;;;;;;;16.49;45.83;100549.53;4995355;28;1084;-59
2023/07/19 01:19:32;;;;;;;;;;;;;;;16.47;45.51;100538.81;4997083;28;1060;-59
2023/07/19 01:21:58;;;;;;;;;;;;;;;16.48;45.57;100528.66;4996676;28;1115;-59
2023/07/19 01:24:23;;;;;;;;;;;;;;;16.50;45.76;100529.22;4997019;28;2619;-59
2023/07/19 01:26:49;;;;;;;;;;;;;;;16.42;45.82;100527.84;4996026;28;1915;-58
2023/07/19 01:29:15;;;;;;;;;;;;;;;16.37;45.72;100525.94;4996760;28;1152;-59
2023/07/19 01:31:41;;;;;;;;;;;;;;;16.52;45.67;100533.34;4996573;28;1021;-57
2023/07/19 01:34:07;;;;;;;;;;;;;;;16.59;45.31;100538.50;4995223;28;897;-58
2023/07/19 01:36:33;;;;;;;;;;;;;;;16.47;45.57;100568.22;4996581;28;1012;-58
2023/07/19 01:38:59;;;;;;;;;;;;;;;16.53;45.48;100561.59;4996519;28;1123;-57
2023/07/19 01:41:24;;;;;;;;;;;;;;;16.46;45.61;100552.84;4996027;28;1099;-57
2023/07/19 01:43:50;;;;;;;;;;;;;;;16.47;45.67;100536.09;4995180;28;1107;-57
2023/07/19 01:46:15;;;;;;;;;;;;;;;16.49;45.41;100542.09;4994619;28;2134;-57
2023/07/19 01:48:41;;;;;;;;;;;;;;;16.39;45.61;100551.19;4997024;28;1092;-57
2023/07/19 01:51:06;;;;;;;;;;;;;;;16.46;45.54;100539.09;4996143;28;1024;-58
2023/07/19 01:53:32;;;;;;;;;;;;;;;16.48;45.45;100536.88;4996411;28;1846;-57
2023/07/19 01:55:58;;;;;;;;;;;;;;;16.42;45.65;100539.69;4996358;28;1156;-57
2023/07/19 01:58:24;;;;;;;;;;;;;;;16.44;45.67;100536.66;4994823;28;1210;-58
2023/07/19 02:00:52;;;;;;;;;;;;;;;16.38;45.56;100544.06;4995237;28;1124;-58
2023/07/19 02:03:18;;;;;;;;;;;;;;;16.45;45.22;100559.41;4995442;28;1115;-57
2023/07/19 02:05:45;;;;;;;;;;;;;;;16.41;45.74;100554.47;4995016;28;1902;-59
2023/07/19 02:08:10;;;;;;;;;;;;;;;16.45;45.34;100559.41;4996283;28;1063;-59
2023/07/19 02:10:36;;;;;;;;;;;;;;;16.38;45.51;100554.22;4996140;28;866;-59
2023/07/19 02:13:01;;;;;;;;;;;;;;;16.46;45.40;100550.09;4996358;28;1100;-59
2023/07/19 02:15:27;;;;;;;;;;;;;;;16.45;45.36;100545.69;4994689;28;1111;-59
2023/07/19 02:17:53;;;;;;;;;;;;;;;16.46;45.42;100555.56;4996343;28;1079;-59
2023/07/19 02:20:19;;;;;;;;;;;;;;;16.41;45.89;100557.22;4996176;28;1154;-59
2023/07/19 02:22:46;;;;;;;;;;;;;;;16.49;45.40;100555.00;4994795;28;1200;-60
2023/07/19 02:25:11;;;;;;;;;;;;;;;16.45;45.82;100551.19;4995627;28;2593;-59
2023/07/19 02:27:37;;;;;;;;;;;;;;;16.49;45.42;100555.81;4996321;28;1139;-60
2023/07/19 02:30:03;;;;;;;;;;;;;;;16.40;45.96;100552.84;4996141;28;1045;-60
2023/07/19 02:32:28;;;;;;;;;;;;;;;16.45;45.75;100560.22;4996207;28;1040;-60
2023/07/19 02:34:54;;;;;;;;;;;;;;;16.47;45.70;100568.22;4995577;28;918;-60
2023/07/19 02:37:19;;;;;;;;;;;;;;;16.43;45.93;100574.22;4997175;28;1028;-60
2023/07/19 02:39:45;;;;;;;;;;;;;;;16.43;45.83;100567.94;4998715;28;1119;-60
2023/07/19 02:42:10;;;;;;;;;;;;;;;16.49;45.94;100585.22;4999814;28;1124;-60
2023/07/19 02:44:36;;;;;;;;;;;;;;;16.51;45.79;100580.25;4999885;28;1979;-59
2023/07/19 02:47:02;;;;;;;;;;;;;;;16.45;45.79;100584.13;4998145;28;842;-59
2023/07/19 02:49:27;;;;;;;;;;;;;;;16.52;45.69;100598.38;5000027;28;1167;-57
2023/07/19 02:51:53;;;;;;;;;;;;;;;16.48;45.76;100591.78;4999970;28;1151;-58
2023/07/19 02:54:18;;;;;;;;;;;;;;;16.41;45.77;100592.91;4999124;28;2367;-59
2023/07/19 02:56:44;;;;;;;;;;;;;;;16.51;45.71;100596.72;4999855;28;1092;-60
2023/07/19 02:59:10;;;;;;;;;;;;;;;16.46;45.64;100589.31;4999206;28;937;-59
2023/07/19 03:01:36;;;;;;;;;;;;;;;16.40;45.49;100580.28;4999818;28;1108;-59
2023/07/19 03:04:02;;;;;;;;;;;;;;;16.51;45.36;100591.22;4998233;28;1183;-59
2023/07/19 03:06:28;;;;;;;;;;;;;;;16.48;45.51;100591.78;4997999;28;1899;-59
2023/07/19 03:08:54;;;;;;;;;;;;;;;16.46;45.43;100585.75;4998013;28;1211;-59
2023/07/19 03:11:19;;;;;;;;;;;;;;;16.50;45.28;100589.59;4997817;28;895;-60
2023/07/19 03:13:45;;;;;;;;;;;;;;;16.48;45.58;100589.88;4999296;28;1191;-59
2023/07/19 03:16:10;;;;;;;;;;;;;;;16.42;45.68;100594.56;4998028;28;1989;-59
2023/07/19 03:18:36;;;;;;;;;;;;;;;16.52;45.28;100593.72;4997868;28;1331;-61
2023/07/19 03:21:02;;;;;;;;;;;;;;;16.42;45.65;100602.78;4999270;28;1159;-60
2023/07/19 03:23:30;;;;;;;;;;;;;;;16.45;45.39;100609.63;4997399;28;2348;-58
2023/07/19 03:25:57;;;;;;;;;;;;;;;16.51;45.56;100607.69;5013557;28;1894;-59
2023/07/19 03:28:25;;;;;;;;;;;;;;;16.53;45.32;100600.84;4997783;28;1357;-60
2023/07/19 03:30:54;;;;;;;;;;;;;;;16.42;45.63;100611.03;4999042;28;1120;-60
2023/07/19 03:33:20;;;;;;;;;;;;;;;16.41;45.68;100608.53;4997649;28;1159;-58
2023/07/19 03:35:46;;;;;;;;;;;;;;;16.42;45.77;100605.53;4997523;28;1622;-59
2023/07/19 03:38:11;;;;;;;;;;;;;;;16.40;45.74;100601.41;4999146;28;1092;-60
2023/07/19 03:40:37;;;;;;;;;;;;;;;16.51;45.39;100608.53;4997587;28;1144;-60
2023/07/19 03:43:03;;;;;;;;;;;;;;;16.50;45.51;100606.06;4997268;28;1069;-59
2023/07/19 03:45:28;;;;;;;;;;;;;;;16.42;45.46;100610.19;4997178;28;1999;-60
2023/07/19 03:47:54;;;;;;;;;;;;;;;16.50;45.67;100617.06;4997523;28;1333;-60
2023/07/19 03:50:20;;;;;;;;;;;;;;;16.43;45.45;100607.16;4996589;28;1381;-60
2023/07/19 03:52:46;;;;;;;;;;;;;;;16.48;45.43;100591.78;4997568;28;1293;-59
2023/07/19 03:55:11;;;;;;;;;;;;;;;16.36;45.73;100589.34;4998378;28;2557;-58
2023/07/19 03:57:37;;;;;;;;;;;;;;;16.48;45.31;100592.63;4996313;28;1092;-59
2023/07/19 04:00:04;;;;;;;;;;;;;;;16.59;47.27;100588.75;5021519;28;1552;-64
2023/07/19 04:02:42;;;;;;;;;;;;;;;16.59;47.03;100593.41;5007134;28;1160;-60
2023/07/19 04:05:08;;;;;;;;;;;;;;;16.69;46.56;100587.06;5005618;28;1906;-64
2023/07/19 04:07:34;;;;;;;;;;;;;;;16.65;46.52;100591.47;4997056;28;1265;-66
2023/07/19 04:10:00;;;;;;;;;;;;;;;16.65;46.43;100603.28;4998077;28;1132;-63
2023/07/19 04:12:26;;;;;;;;;;;;;;;16.85;48.63;100601.59;4998326;28;1075;-62
2023/07/19 04:14:51;;;;;;;;;;;;;;;16.83;49.74;100590.03;4997099;28;1325;-64
2023/07/19 04:17:22;;;;;;;;;;;;;;;16.96;49.87;100595.00;4995854;28;1615;-63
2023/07/19 04:19:48;;;;;;;;;;;;;;;17.02;50.56;100579.31;5008583;28;1356;-62
2023/07/19 04:22:14;;;;;;;;;;;;;;;17.07;50.51;100571.06;4997831;28;1449;-63
2023/07/19 04:24:40;;;;;;;;;;;;;;;17.03;51.19;100565.28;4991000;28;2253;-63
2023/07/19 04:27:06;;;;;;;;;;;;;;;17.21;50.85;100574.00;4999777;28;1375;-64
2023/07/19 04:29:32;;;;;;;;;;;;;;;17.22;50.87;100575.63;4998121;28;1120;-64
2023/07/19 04:31:58;;;;;;;;;;;;;;;17.20;51.08;100575.09;4996523;28;1166;-64
2023/07/19 04:34:24;;;;;;;;;;;;;;;17.34;50.76;100589.88;4996281;28;1268;-65
2023/07/19 04:36:50;;;;;;;;;;;;;;;17.23;50.59;100574.53;4998230;28;1190;-65
2023/07/19 04:39:16;;;;;;;;;;;;;;;17.23;50.61;100574.53;4995863;28;1281;-65
2023/07/19 04:41:45;;;;;;;;;;;;;;;17.47;50.26;100571.09;4998218;28;1374;-65
2023/07/19 04:44:12;;;;;;;;;;;;;;;17.37;50.25;100569.25;4978437;28;1429;-64
2023/07/19 04:46:37;;;;;;;;;;;;;;;17.44;50.22;100569.75;4992344;28;1973;-65
2023/07/19 04:49:03;;;;;;;;;;;;;;;17.42;50.34;100582.97;5004534;28;902;-65
2023/07/19 04:51:29;;;;;;;;;;;;;;;18.53;50.29;100588.97;4997588;28;1104;-65
2023/07/19 04:53:55;;;;;;;;;;;;;;;18.37;51.77;100597.38;4996295;28;1827;-63
2023/07/19 04:56:21;;;;;;;;;;;;;;;18.19;52.74;100595.34;4995967;28;1323;-63
2023/07/19 04:58:47;;;;;;;;;;;;;;;18.17;53.41;100598.38;4999051;28;1144;-64
2023/07/19 05:01:13;;;;;;;;;;;;;;;18.06;53.88;100600.41;4999313;28;1162;-64
2023/07/19 05:03:40;;;;;;;;;;;;;;;17.92;54.01;100597.50;4996182;28;1127;-66
2023/07/19 05:06:05;;;;;;;;;;;;;;;17.84;54.18;100597.25;4995266;28;1910;-66
2023/07/19 05:08:31;;;;;;;;;;;;;;;17.85;53.80;100591.47;4983007;28;1292;-66
2023/07/19 05:10:56;;;;;;;;;;;;;;;17.78;53.93;100589.03;4993508;28;917;-66
2023/07/19 05:13:22;;;;;;;;;;;;;;;17.79;53.92;100592.59;4997647;28;1128;-65
2023/07/19 05:15:48;;;;;;;;;;;;;;;17.79;53.83;100587.09;4996305;28;1172;-66
2023/07/19 05:18:14;;;;;;;;;;;;;;;17.70;54.04;100591.59;4995828;28;1351;-67
2023/07/19 05:20:40;;;;;;;;;;;;;;;17.65;54.19;100589.66;4996191;28;1167;-67
2023/07/19 05:23:05;;;;;;;;;;;;;;;17.62;54.13;100593.81;4993622;28;1048;-68
2023/07/19 05:25:31;;;;;;;;;;;;;;;17.59;54.23;100588.06;5008871;28;1966;-66
2023/07/19 05:27:57;;;;;;;;;;;;;;;17.59;53.98;100590.81;4995640;28;1417;-71
2023/07/19 05:30:22;;;;;;;;;;;;;;;17.59;53.97;100588.88;4989925;28;1585;-70
2023/07/19 05:32:48;;;;;;;;;;;;;;;17.55;54.30;100587.81;4987127;28;1210;-70
2023/07/19 05:35:13;;;;;;;;;;;;;;;17.55;54.11;100585.06;4997004;28;1064;-67
2023/07/19 05:37:40;;;;;;;;;;;;;;;17.53;54.20;100591.94;4997548;28;1025;-66
2023/07/19 05:40:06;;;;;;;;;;;;;;;17.45;54.15;100594.19;4997379;28;1139;-65
2023/07/19 05:42:32;;;;;;;;;;;;;;;17.45;54.23;100590.63;4996797;28;1036;-71
2023/07/19 05:44:57;;;;;;;;;;;;;;;17.39;54.36;100583.50;4996682;28;1971;-69
2023/07/19 05:47:23;;;;;;;;;;;;;;;17.46;54.05;100584.03;4996452;28;1184;-67
2023/07/19 05:49:49;;;;;;;;;;;;;;;17.37;54.48;100574.75;4996674;28;1143;-69
2023/07/19 05:52:14;;;;;;;;;;;;;;;17.41;54.33;100584.88;4997319;28;1072;-71
2023/07/19 05:54:40;;;;;;;;;;;;;;;17.40;54.34;100591.50;4995796;28;1135;-69
2023/07/19 05:57:05;;;;;;;;;;;;;;;17.38;54.37;100574.44;4996673;28;1152;-66
2023/07/19 05:59:31;;;;;;;;;;;;;;;17.38;54.48;100570.88;4996331;28;1091;-66
2023/07/19 06:01:56;;;;;;;;;;;;;;;17.40;54.35;100574.16;4994850;28;1444;-71
2023/07/19 06:04:22;;;;;;;;;;;;;;;17.40;53.99;100558.50;4989815;28;1190;-66
2023/07/19 06:06:49;;;;;;;;;;;;;;;17.36;54.10;100568.44;4986230;28;1918;-67
2023/07/19 06:09:17;;;;;;;;;;;;;;;17.34;54.44;100576.13;4991958;28;1128;-67
2023/07/19 06:11:44;;;;;;;;;;;;;;;17.27;54.26;100572.88;4998262;28;1076;-68
2023/07/19 06:14:09;;;;;;;;;;;;;;;17.35;54.30;100574.19;5002189;28;1060;-69
2023/07/19 06:16:35;;;;;;;;;;;;;;;17.28;54.45;100566.28;5003067;28;1123;-72
2023/07/19 06:19:00;;;;;;;;;;;;;;;17.38;54.14;100560.72;4999405;28;1178;-66
2023/07/19 06:21:27;;;;;;;;;;;;;;;17.31;54.48;100562.13;5002802;28;1238;-67
2023/07/19 06:23:53;;;;;;;;;;;;;;;17.34;54.48;100556.88;5002541;28;1113;-67
2023/07/19 06:26:18;;;;;;;;;;;;;;;17.30;54.09;100536.56;5003099;28;1906;-66
2023/07/19 06:28:44;;;;;;;;;;;;;;;17.33;54.34;100552.47;5003138;28;1114;-67
2023/07/19 06:31:09;;;;;;;;;;;;;;;17.34;54.41;100543.13;5002903;28;1226;-68
2023/07/19 06:33:35;;;;;;;;;;;;;;;17.33;54.35;100552.47;5002785;28;1123;-65
2023/07/19 06:36:00;;;;;;;;;;;;;;;17.33;54.53;100546.19;5002437;28;1056;-68
2023/07/19 06:38:26;;;;;;;;;;;;;;;17.34;54.52;100553.31;5003092;28;1065;-65
2023/07/19 06:40:52;;;;;;;;;;;;;;;17.39;54.48;100547.78;5002919;28;1179;-64
2023/07/19 06:43:17;;;;;;;;;;;;;;;17.30;54.68;100547.56;5002826;28;1531;-65
2023/07/19 06:45:47;;;;;;;;;;;;;;;17.26;54.66;100541.81;5001623;28;1977;-64
2023/07/19 06:48:13;;;;;;;;;;;;;;;17.31;54.78;100543.72;5002397;28;1207;-67
2023/07/19 06:50:38;;;;;;;;;;;;;;;17.28;54.87;100533.28;5002790;28;1218;-69
2023/07/19 06:53:04;;;;;;;;;;;;;;;17.34;54.83;100531.34;5002420;28;1080;-66
2023/07/19 06:55:29;;;;;;;;;;;;;;;17.31;54.63;100538.22;5003015;28;1126;-66
2023/07/19 06:57:56;;;;;;;;;;;;;;;17.28;54.72;100533.28;4999767;28;1072;-66
2023/07/19 07:00:22;;;;;;;;;;;;;;;17.27;54.60;100528.91;5002481;28;850;-67
2023/07/19 07:02:48;;;;;;;;;;;;;;;17.26;54.80;100532.75;5003423;28;1179;-66
2023/07/19 07:05:14;;;;;;;;;;;;;;;17.24;54.95;100526.72;5003144;28;1988;-64
2023/07/19 07:07:40;;;;;;;;;;;;;;;17.32;54.52;100525.28;5002578;28;1138;-67
2023/07/19 07:10:08;;;;;;;;;;;;;;;17.29;54.70;100532.16;5002912;28;1128;-66
2023/07/19 07:12:36;;;;;;;;;;;;;;;17.26;54.76;100521.75;5002704;28;1068;-66
2023/07/19 07:15:02;;;;;;;;;;;;;;;17.22;54.72;100517.94;5003248;28;1024;-64
2023/07/19 07:17:28;;;;;;;;;;;;;;;17.28;54.83;100522.31;5002472;28;1044;-66
2023/07/19 07:19:53;;;;;;;;;;;;;;;17.19;54.97;100513.81;5002958;28;1061;-67
2023/07/19 07:22:19;;;;;;;;;;;;;;;17.22;54.77;100518.78;5002863;28;1187;-63
2023/07/19 07:24:45;;;;;;;;;;;;;;;17.26;54.78;100521.75;4998645;28;1902;-67
2023/07/19 07:27:10;;;;;;;;;;;;;;;17.22;55.03;100517.94;4999876;28;1088;-65
2023/07/19 07:29:36;;;;;;;;;;;;;;;17.28;54.85;100519.56;4999947;28;1140;-64
2023/07/19 07:32:02;;;;;;;;;;;;;;;17.26;54.85;100517.09;4999418;28;1532;-65
2023/07/19 07:34:28;;;;;;;;;;;;;;;17.28;55.08;100522.31;4999845;28;1061;-64
2023/07/19 07:36:53;;;;;;;;;;;;;;;17.21;55.13;100514.38;4999360;28;1083;-65
2023/07/19 07:39:19;;;;;;;;;;;;;;;17.27;55.29;100509.66;4999683;28;1132;-67
2023/07/19 07:41:45;;;;;;;;;;;;;;;17.26;55.32;100513.50;4997628;28;1340;-63
2023/07/19 07:44:10;;;;;;;;;;;;;;;17.30;55.29;100508.28;4997857;28;1345;-66
2023/07/19 07:46:36;;;;;;;;;;;;;;;17.24;55.26;100502.81;4997528;28;1910;-66
2023/07/19 07:49:02;;;;;;;;;;;;;;;17.29;55.32;100507.44;4998944;28;1051;-65
2023/07/19 07:51:29;;;;;;;;;;;;;;;17.35;55.17;100511.81;4998953;28;1052;-68
2023/07/19 07:53:54;;;;;;;;;;;;;;;17.24;55.29;100500.06;4988699;28;1357;-67
2023/07/19 07:56:22;;;;;;;;;;;;;;;17.32;55.19;100506.06;4989582;28;1581;-63
2023/07/19 07:58:47;;;;;;;;;;;;;;;17.31;55.41;100508.00;4999437;28;954;-64
2023/07/19 08:01:13;;;;;;;;;;;;;;;17.36;55.33;100507.97;4998517;28;1056;-63
2023/07/19 08:03:39;;;;;;;;;;;;;;;17.29;55.35;100501.94;4999524;28;1159;-68
2023/07/19 08:06:04;;;;;;;;;;;;;;;17.33;55.38;100510.44;4998943;28;1922;-61
2023/07/19 08:08:30;;;;;;;;;;;;;;;17.35;55.30;100495.31;4998850;28;1235;-64
2023/07/19 08:10:56;;;;;;;;;;;;;;;17.36;55.42;100499.72;4999097;28;1144;-66
2023/07/19 08:13:21;;;;;;;;;;;;;;;17.35;55.41;100498.06;4998588;28;861;-64
2023/07/19 08:15:48;;;;;;;;;;;;;;;17.35;55.26;100498.06;4998747;28;1051;-63
2023/07/19 08:18:13;;;;;;;;;;;;;;;17.29;55.57;100493.69;4998975;28;1024;-63
2023/07/19 08:20:39;;;;;;;;;;;;;;;17.40;55.14;100497.19;4993060;28;1401;-64
2023/07/19 08:23:05;;;;;;;;;;;;;;;17.41;55.11;100504.34;4993138;28;1331;-62
2023/07/19 08:25:30;;;;;;;;;;;;;;;17.41;55.40;100496.91;4994649;28;1973;-66
2023/07/19 08:27:56;;;;;;;;;;;;;;;17.38;55.21;100502.19;4995152;28;1190;-62
2023/07/19 08:30:23;;;;;;;;;;;;;;;17.35;55.61;100498.06;4998245;28;1102;-63
2023/07/19 08:32:48;;;;;;;;;;;;;;;17.34;55.32;100498.34;4998724;28;1063;-65
2023/07/19 08:35:14;;;;;;;;;;;;;;;17.38;55.19;100488.44;4998393;28;1065;-64
2023/07/19 08:37:42;;;;;;;;;;;;;;;17.39;55.47;100496.38;4997807;28;1294;-67
2023/07/19 08:40:08;;;;;;;;;;;;;;;17.41;55.51;100501.59;4998479;28;1000;-67
2023/07/19 08:42:34;;;;;;;;;;;;;;;17.39;55.40;100485.41;4998241;28;1136;-70
2023/07/19 08:44:59;;;;;;;;;;;;;;;17.42;55.16;100490.31;4994854;28;1925;-65
2023/07/19 08:47:25;;;;;;;;;;;;;;;17.38;55.42;100483.75;4998008;28;1028;-65
2023/07/19 08:49:51;;;;;;;;;;;;;;;17.42;55.22;100484.00;4997241;28;857;-68
2023/07/19 08:52:16;;;;;;;;;;;;;;;17.40;55.45;100484.31;4997826;28;1127;-67
2023/07/19 08:54:42;;;;;;;;;;;;;;;17.41;55.24;100482.38;4996808;28;1039;-65
2023/07/19 08:57:07;;;;;;;;;;;;;;;17.43;55.37;100480.97;4994976;28;1491;-69
2023/07/19 08:59:33;;;;;;;;;;;;;;;17.47;55.22;100491.38;4997777;28;1127;-67
2023/07/19 09:01:58;;;;;;;;;;;;;;;17.39;55.48;100493.66;4996784;28;937;-67
2023/07/19 09:04:24;;;;;;;;;;;;;;;17.45;55.45;100489.75;4996631;28;1159;-65
2023/07/19 09:06:50;;;;;;;;;;;;;;;17.41;55.26;100483.16;4997173;28;1914;-64
2023/07/19 09:09:18;;;;;;;;;;;;;;;17.40;55.52;100483.47;4998187;28;1060;-65
2023/07/19 09:11:49;;;;;;;;;;;;;;;17.44;55.25;100477.09;4997191;28;1349;-65
2023/07/19 09:14:15;;;;;;;;;;;;;;;17.39;55.61;100479.06;4998138;28;892;-65
2023/07/19 09:16:40;;;;;;;;;;;;;;;17.47;55.43;100494.94;4995783;28;1143;-65
2023/07/19 09:19:06;;;;;;;;;;;;;;;17.47;55.41;100492.19;4998005;28;1132;-65
2023/07/19 09:21:32;;;;;;;;;;;;;;;17.53;55.32;100485.56;4995628;28;1349;-62
2023/07/19 09:23:59;;;;;;;;;;;;;;;17.45;55.48;100476.00;4997656;28;1207;-67
2023/07/19 09:26:24;;;;;;;;;;;;;;;17.47;55.37;100470.22;4997236;28;1905;-64
2023/07/19 09:28:54;;;;;;;;;;;;;;;17.41;55.36;100485.91;4997774;28;1079;-66
2023/07/19 09:31:20;;;;;;;;;;;;;;;17.48;55.56;100476.53;4997430;28;1154;-63
2023/07/19 09:33:46;;;;;;;;;;;;;;;17.44;55.51;100473.53;4997745;28;1135;-65
2023/07/19 09:36:14;;;;;;;;;;;;;;;17.48;55.55;100476.53;4996866;28;1040;-67
2023/07/19 09:38:39;;;;;;;;;;;;;;;17.50;55.40;100466.06;4991850;28;1445;-66
2023/07/19 09:41:05;;;;;;;;;;;;;;;17.48;55.29;100477.34;5005127;28;1218;-66
2023/07/19 09:43:31;;;;;;;;;;;;;;;17.40;55.56;100469.72;4996066;28;1118;-66
2023/07/19 09:45:56;;;;;;;;;;;;;;;17.47;55.52;100469.41;4994372;28;2377;-66
2023/07/19 09:48:22;;;;;;;;;;;;;;;17.50;55.39;100457.81;4987316;28;1159;-65
2023/07/19 09:50:49;;;;;;;;;;;;;;;17.50;55.28;100452.31;4995866;28;1266;-63
2023/07/19 09:53:14;;;;;;;;;;;;;;;17.53;55.57;100457.25;4996995;28;974;-66
2023/07/19 09:55:40;;;;;;;;;;;;;;;17.50;55.62;100444.06;4997230;28;1048;-67
2023/07/19 09:58:07;;;;;;;;;;;;;;;17.47;55.50;100442.72;4997031;28;1040;-68
2023/07/19 10:00:33;;;;;;;;;;;;;;;17.50;55.52;100449.56;4996959;28;1063;-63
2023/07/19 10:02:59;;;;;;;;;;;;;;;17.51;55.62;100442.97;4996946;28;1068;-67
2023/07/19 10:05:30;;;;;;;;;;;;;;;17.53;55.31;100440.75;4996919;28;1910;-67
2023/07/19 10:08:05;;;;;;;;;;;;;;;17.46;55.44;100438.34;4997088;28;1227;-65
2023/07/19 10:10:35;;;;;;;;;;;;;;;17.49;55.41;100434.19;4997290;28;1218;-65
2023/07/19 10:13:00;;;;;;;;;;;;;;;17.53;55.51;100438.00;4996703;28;1226;-65
2023/07/19 10:15:26;;;;;;;;;;;;;;;17.51;55.73;100437.47;4996788;28;1102;-66
2023/07/19 10:17:55;;;;;;;;;;;;;;;17.50;55.54;100430.34;4995864;28;1068;-67
2023/07/19 10:20:40;;;;;;;;;;;;;;;17.50;55.62;100431.16;4996898;28;1152;-67
2023/07/19 10:23:06;;;;;;;;;;;;;;;17.47;55.85;100419.91;4996955;28;1040;-66
2023/07/19 10:25:35;;;;;;;;;;;;;;;17.49;55.62;100428.69;4996327;28;1909;-67
2023/07/19 10:28:00;;;;;;;;;;;;;;;17.55;55.87;100433.03;4996973;28;1160;-67
2023/07/19 10:30:45;;;;;;;;;;;;;;;17.54;55.66;100436.91;4992487;28;1274;-67
2023/07/19 10:33:16;;;;;;;;;;;;;;;17.49;55.61;100423.19;4986415;28;1112;-66
2023/07/19 10:35:42;;;;;;;;;;;;;;;17.48;55.82;100424.31;4996522;28;1095;-67
2023/07/19 10:38:14;;;;;;;;;;;;;;;17.49;55.79;100428.69;5004656;28;863;-68
2023/07/19 10:40:42;;;;;;;;;;;;;;;17.49;55.94;100424.03;4996394;28;1106;-63
2023/07/19 10:43:07;;;;;;;;;;;;;;;17.42;55.75;100413.34;5010050;28;928;-65
2023/07/19 10:45:33;;;;;;;;;;;;;;;17.43;55.96;100408.66;4993442;28;1988;-65
2023/07/19 10:47:59;;;;;;;;;;;;;;;17.48;55.99;100416.06;5000420;28;1043;-70
2023/07/19 10:50:25;;;;;;;;;;;;;;;17.55;55.78;100405.56;4994627;28;1379;-69
2023/07/19 10:52:51;;;;;;;;;;;;;;;17.53;55.87;100410.50;4996439;28;1154;-69
2023/07/19 10:55:16;;;;;;;;;;;;;;;17.53;55.98;100413.25;4996195;28;1143;-69
2023/07/19 10:57:42;;;;;;;;;;;;;;;17.55;55.98;100411.88;4997146;28;1171;-70
2023/07/19 11:00:12;;;;;;;;;;;;;;;17.54;55.94;100415.72;5000456;28;1140;-69
2023/07/19 11:02:41;;;;;;;;;;;;;;;17.54;55.84;100404.72;4999626;28;1291;-68
2023/07/19 11:05:06;;;;;;;;;;;;;;;17.53;55.77;100403.09;5000364;28;1914;-67
2023/07/19 11:07:32;;;;;;;;;;;;;;;17.50;55.66;100405.59;4999971;28;1154;-68
2023/07/19 11:09:58;;;;;;;;;;;;;;;17.51;55.73;100404.50;5000070;28;1216;-65
2023/07/19 11:12:23;;;;;;;;;;;;;;;17.50;55.92;100405.59;4999858;28;1140;-67
2023/07/19 11:15:00;;;;;;;;;;;;;;;17.50;55.81;100398.19;4999848;28;873;-65
2023/07/19 11:17:26;;;;;;;;;;;;;;;17.53;55.93;100407.75;4999736;28;1211;-65
2023/07/19 11:19:52;;;;;;;;;;;;;;;17.45;56.04;100404.53;4999783;28;1131;-67
2023/07/19 11:22:24;;;;;;;;;;;;;;;17.50;55.94;100402.84;4999890;28;1029;-64
2023/07/19 11:24:50;;;;;;;;;;;;;;;17.52;55.76;100395.94;4999796;28;1103;-66
2023/07/19 11:27:16;;;;;;;;;;;;;;;17.51;55.88;100388.81;4997883;28;1975;-68
2023/07/19 11:29:42;;;;;;;;;;;;;;;17.57;55.78;100389.56;4996393;28;1396;-65
2023/07/19 11:32:18;;;;;;;;;;;;;;;17.55;55.76;100389.06;4999164;28;1410;-65
2023/07/19 11:34:51;;;;;;;;;;;;;;;17.51;55.83;100388.81;4998442;28;925;-68
2023/07/19 11:37:17;;;;;;;;;;;;;;;17.52;55.64;100384.16;4999068;28;1131;-65
2023/07/19 11:39:42;;;;;;;;;;;;;;;17.49;55.83;100388.28;4999933;28;1120;-69
2023/07/19 11:42:08;;;;;;;;;;;;;;;17.47;55.85;100397.94;4999403;28;980;-61
2023/07/19 11:44:34;;;;;;;;;;;;;;;17.49;55.87;100396.53;4999357;28;1226;-66
2023/07/19 11:46:59;;;;;;;;;;;;;;;17.50;55.81;100386.34;4997739;28;1907;-64
2023/07/19 11:49:25;;;;;;;;;;;;;;;17.51;56.01;100377.81;4999143;28;1321;-60
2023/07/19 11:51:51;;;;;;;;;;;;;;;17.52;55.82;100373.97;4999249;28;1049;-60
2023/07/19 11:54:16;;;;;;;;;;;;;;;17.56;55.83;100379.72;4996935;28;1100;-62
2023/07/19 11:56:42;;;;;;;;;;;;;;;17.48;55.95;100372.09;4988087;28;1147;-64
2023/07/19 11:59:07;;;;;;;;;;;;;;;17.43;56.08;100371.03;4997091;28;1329;-65
2023/07/19 12:01:33;;;;;;;;;;;;;;;17.52;55.80;100386.91;4993194;28;1314;-63
2023/07/19 12:04:01;;;;;;;;;;;;;;;17.48;55.82;100378.41;4990026;28;1265;-71
2023/07/19 12:06:26;;;;;;;;;;;;;;;17.50;55.90;100376.19;4998144;28;1997;-65
2023/07/19 12:08:52;;;;;;;;;;;;;;;17.53;55.85;100367.38;4998792;28;1177;-65
2023/07/19 12:11:18;;;;;;;;;;;;;;;17.51;55.84;100372.31;4998342;28;1115;-63
2023/07/19 12:13:43;;;;;;;;;;;;;;;17.47;56.05;100364.94;4996985;28;1203;-66
2023/07/19 12:16:09;;;;;;;;;;;;;;;17.49;56.03;100370.97;4985728;28;1245;-63
2023/07/19 12:18:34;;;;;;;;;;;;;;;17.53;55.94;100366.53;4998602;28;1448;-64
2023/07/19 12:21:00;;;;;;;;;;;;;;;17.53;55.91;100372.03;5004054;28;1616;-65
2023/07/19 12:23:26;;;;;;;;;;;;;;;17.50;56.13;100369.84;4999626;28;1052;-66
2023/07/19 12:25:51;;;;;;;;;;;;;;;17.52;55.94;100373.16;4998169;28;1902;-67
2023/07/19 12:28:22;;;;;;;;;;;;;;;17.51;56.17;100355.81;5000194;28;1052;-68
2023/07/19 12:30:48;;;;;;;;;;;;;;;17.52;55.94;100362.16;5005161;28;996;-68
2023/07/19 12:33:14;;;;;;;;;;;;;;;17.53;56.12;100366.53;4998235;28;1321;-67
2023/07/19 12:35:39;;;;;;;;;;;;;;;17.53;56.17;100348.13;4998766;28;1051;-62
2023/07/19 12:38:05;;;;;;;;;;;;;;;17.51;55.97;100350.31;4998187;28;1164;-63
2023/07/19 12:40:32;;;;;;;;;;;;;;;17.56;56.10;100352.22;4998462;28;1060;-66
2023/07/19 12:42:58;;;;;;;;;;;;;;;17.56;56.08;100358.53;4998646;28;1024;-61